Lexington, New York
Current Conditions -  °F | °C
As of 11:35 AM on Monday 24 Nov 2014 (Local Time) from KMSV Reporting Station
Broken Clouds Broken Clouds  
Wind Chill: 59°   Ceiling: 1300
Heat Index: 59°   Visibility: 10mi
Dew Point: 57°   Wind: 12mph
Humidity: 94%   Direction: 200°SSW
Pressure: 29.6"   Gusts: 22mph
Location:  42.24°N, 74.37°W
Report Text: KMSV 241635Z AUTO 20010G19KT 10SM BKN013 BKN019 15/14 A2960 RMK AO1
Loading
Personal Weather Stations






























Interactive Weather Map New forecast layout! Learn more

10-Day Weather Forecast

Advertisements
Track Severe Weather on mobile